createdAt,value
2018-08-30T00:00:26.278Z,4.10
2018-08-30T00:02:53.860Z,4.27
2018-08-30T00:05:21.422Z,4.10
2018-08-30T00:07:49.196Z,3.97
2018-08-30T00:10:16.779Z,4.50
2018-08-30T00:12:44.632Z,3.90
2018-08-30T00:15:12.243Z,4.27
2018-08-30T00:17:39.876Z,4.20
2018-08-30T00:20:07.890Z,3.97
2018-08-30T00:22:35.568Z,4.20
2018-08-30T00:25:03.228Z,3.93
2018-08-30T00:27:31.308Z,4.27
2018-08-30T00:29:59.028Z,3.87
2018-08-30T00:32:26.520Z,3.70
2018-08-30T00:34:54.476Z,3.83
2018-08-30T00:37:22.090Z,3.40
2018-08-30T00:39:49.380Z,4.47
2018-08-30T00:42:17.266Z,3.97
2018-08-30T00:44:44.915Z,4.60
2018-08-30T00:47:17.244Z,3.57
2018-08-30T00:49:44.879Z,4.50
2018-08-30T00:52:12.490Z,3.93
2018-08-30T00:54:40.429Z,4.00
2018-08-30T00:57:08.056Z,3.53
2018-08-30T00:59:35.687Z,4.00
2018-08-30T01:02:03.543Z,3.90
2018-08-30T01:04:31.258Z,4.10
2018-08-30T01:06:58.888Z,3.70
2018-08-30T01:09:26.668Z,3.67
2018-08-30T01:11:54.307Z,4.07
2018-08-30T01:14:22.081Z,3.57
2018-08-30T01:16:50.058Z,3.80
2018-08-30T01:19:17.943Z,3.67
2018-08-30T01:21:45.562Z,4.00
2018-08-30T01:24:13.364Z,4.00
2018-08-30T01:26:41.364Z,4.07
2018-08-30T01:29:09.017Z,3.70
2018-08-30T01:31:36.706Z,3.93
2018-08-30T01:34:04.631Z,4.60
2018-08-30T01:36:32.309Z,3.60
2018-08-30T01:39:00.052Z,4.50
2018-08-30T01:41:28.025Z,4.07
2018-08-30T01:43:56.028Z,3.70
2018-08-30T01:46:23.865Z,3.57
2018-08-30T01:48:51.788Z,4.00
2018-08-30T01:51:21.205Z,3.80
2018-08-30T01:53:48.799Z,4.30
2018-08-30T01:56:16.396Z,4.13
2018-08-30T01:58:44.625Z,4.20
2018-08-30T02:01:12.232Z,3.90
2018-08-30T02:03:39.909Z,3.87
2018-08-30T02:06:07.995Z,4.30
2018-08-30T02:08:35.672Z,4.00
2018-08-30T02:11:03.288Z,4.17
2018-08-30T02:13:31.272Z,4.47
2018-08-30T02:15:59.002Z,4.17
2018-08-30T02:18:26.629Z,4.50
2018-08-30T02:21:02.531Z,5.17
2018-08-30T02:28:35.179Z,4.53
2018-08-30T02:31:41.132Z,4.63
2018-08-30T02:34:18.243Z,4.37
2018-08-30T02:37:08.979Z,4.60
2018-08-30T02:39:36.807Z,5.10
2018-08-30T02:42:04.130Z,4.70
2018-08-30T02:44:31.826Z,4.90
2018-08-30T02:46:59.511Z,4.80
2018-08-30T02:49:27.141Z,4.70
2018-08-30T02:51:54.810Z,4.50
2018-08-30T02:54:22.871Z,4.63
2018-08-30T02:56:50.448Z,4.00
2018-08-30T02:59:18.103Z,4.60
2018-08-30T03:01:45.942Z,4.13
2018-08-30T03:04:13.556Z,4.17
2018-08-30T03:06:41.319Z,4.07
2018-08-30T03:09:09.642Z,3.70
2018-08-30T03:12:16.029Z,4.37
2018-08-30T03:14:52.804Z,3.80
2018-08-30T03:17:24.352Z,4.00
2018-08-30T03:20:26.685Z,4.23
2018-08-30T03:23:21.073Z,4.00
2018-08-30T03:26:22.270Z,3.73
2018-08-30T03:29:20.418Z,3.33
2018-08-30T03:32:26.525Z,3.03
2018-08-30T03:35:32.462Z,3.57
2018-08-30T03:38:00.527Z,3.53
2018-08-30T03:40:28.104Z,3.67
2018-08-30T03:42:55.707Z,3.80
2018-08-30T03:45:23.381Z,4.10
2018-08-30T03:47:50.985Z,3.73
2018-08-30T03:50:18.611Z,3.93
2018-08-30T03:52:46.758Z,4.13
2018-08-30T03:55:14.430Z,3.63
2018-08-30T03:57:42.171Z,3.27
2018-08-30T04:00:09.816Z,3.70
2018-08-30T04:02:37.453Z,3.63
2018-08-30T04:05:05.341Z,3.83
2018-08-30T04:07:32.904Z,4.27
2018-08-30T04:10:00.629Z,4.03
2018-08-30T04:12:28.469Z,4.00
2018-08-30T04:14:56.128Z,3.77
2018-08-30T04:17:23.717Z,4.20
2018-08-30T04:19:51.716Z,3.60
2018-08-30T04:22:19.316Z,3.63
2018-08-30T04:24:47.051Z,3.33
2018-08-30T04:27:14.721Z,3.50
2018-08-30T04:29:42.472Z,4.03
2018-08-30T04:32:10.315Z,4.23
2018-08-30T04:34:37.981Z,3.57
2018-08-30T04:37:05.733Z,4.17
2018-08-30T04:39:33.603Z,3.97
2018-08-30T04:42:01.269Z,3.80
2018-08-30T04:44:28.898Z,4.40
2018-08-30T04:46:56.728Z,4.37
2018-08-30T04:49:24.316Z,4.07
2018-08-30T04:51:51.887Z,3.90
2018-08-30T04:54:20.026Z,4.07
2018-08-30T04:56:47.604Z,4.03
2018-08-30T04:59:15.219Z,3.23
2018-08-30T05:01:43.296Z,4.00
2018-08-30T05:04:10.833Z,4.13
2018-08-30T05:06:38.545Z,4.20
2018-08-30T05:09:08.512Z,4.50
2018-08-30T05:11:36.173Z,4.33
2018-08-30T05:14:04.040Z,4.20
2018-08-30T05:16:31.643Z,3.83
2018-08-30T05:18:59.181Z,4.60
2018-08-30T05:21:26.815Z,4.57
2018-08-30T05:23:54.357Z,4.50
2018-08-30T05:26:22.093Z,4.40
2018-08-30T05:28:49.869Z,4.40
2018-08-30T05:31:17.416Z,4.30
2018-08-30T05:33:45.351Z,4.17
2018-08-30T05:36:12.894Z,4.67
2018-08-30T05:38:40.901Z,4.23
2018-08-30T05:41:08.190Z,4.27
2018-08-30T05:43:36.034Z,4.90
2018-08-30T05:46:03.652Z,4.83
2018-08-30T05:48:31.239Z,4.17
2018-08-30T05:50:59.173Z,4.73
2018-08-30T05:53:26.766Z,4.30
2018-08-30T05:55:54.444Z,4.40
2018-08-30T05:58:22.355Z,4.90
2018-08-30T06:00:50.690Z,4.60
2018-08-30T06:03:18.341Z,4.27
2018-08-30T06:05:46.373Z,4.33
2018-08-30T06:08:14.020Z,4.07
2018-08-30T06:10:41.636Z,3.80
2018-08-30T06:13:09.311Z,3.93
2018-08-30T06:15:36.952Z,3.77
2018-08-30T06:18:04.517Z,3.70
2018-08-30T06:20:32.375Z,3.63
2018-08-30T06:22:59.928Z,3.67
2018-08-30T06:25:27.537Z,3.20
2018-08-30T06:27:55.402Z,3.50
2018-08-30T06:30:23.020Z,3.47
2018-08-30T06:32:50.674Z,3.57
2018-08-30T06:35:18.502Z,3.13
2018-08-30T06:37:46.048Z,3.30
2018-08-30T06:40:13.608Z,3.43
2018-08-30T06:42:41.816Z,3.80
2018-08-30T06:45:09.416Z,3.73
2018-08-30T06:47:36.982Z,3.20
2018-08-30T06:50:05.222Z,3.37
2018-08-30T06:52:33.076Z,3.23
2018-08-30T06:55:00.692Z,3.13
2018-08-30T06:57:28.286Z,3.03
2018-08-30T06:59:56.025Z,3.57
2018-08-30T07:02:23.600Z,3.20
2018-08-30T07:04:51.190Z,3.17
2018-08-30T07:07:18.848Z,3.00
2018-08-30T07:09:46.420Z,3.43
2018-08-30T07:12:13.993Z,3.30
2018-08-30T07:14:41.984Z,2.93
2018-08-30T07:17:09.498Z,3.13
2018-08-30T07:19:37.034Z,3.40
2018-08-30T07:22:05.088Z,3.37
2018-08-30T07:24:32.707Z,3.43
2018-08-30T07:27:00.327Z,3.30
2018-08-30T07:29:28.102Z,3.57
2018-08-30T07:31:55.743Z,3.80
2018-08-30T07:34:23.414Z,3.97
2018-08-30T07:36:51.344Z,3.97
2018-08-30T07:39:18.958Z,4.10
2018-08-30T07:41:46.583Z,4.60
2018-08-30T07:44:14.783Z,4.27
2018-08-30T07:46:42.302Z,4.00
2018-08-30T07:49:09.917Z,3.93
2018-08-30T07:51:38.992Z,4.33
2018-08-30T07:54:07.081Z,4.43
2018-08-30T07:56:34.684Z,4.53
2018-08-30T07:59:02.759Z,4.60
2018-08-30T08:01:30.336Z,4.40
2018-08-30T08:03:57.896Z,5.03
2018-08-30T08:06:25.629Z,4.70
2018-08-30T08:08:53.196Z,4.90
2018-08-30T08:11:20.771Z,5.03
2018-08-30T08:13:49.190Z,5.33
2018-08-30T08:16:16.806Z,5.07
2018-08-30T08:18:44.395Z,5.40
2018-08-30T08:21:11.949Z,5.50
2018-08-30T08:23:39.743Z,6.30
2018-08-30T08:26:07.320Z,5.63
2018-08-30T08:28:34.946Z,5.57
2018-08-30T08:31:02.637Z,5.07
2018-08-30T08:33:30.194Z,5.00
2018-08-30T08:35:59.298Z,5.07
2018-08-30T08:38:26.942Z,4.83
2018-08-30T08:40:54.568Z,4.53
2018-08-30T08:43:22.511Z,4.73
2018-08-30T08:45:51.027Z,5.07
2018-08-30T08:48:18.591Z,4.43
2018-08-30T08:50:46.228Z,5.00
2018-08-30T08:53:14.188Z,5.13
2018-08-30T08:55:41.789Z,5.43
2018-08-30T08:58:09.663Z,6.13
2018-08-30T09:00:37.300Z,7.73
2018-08-30T09:03:05.244Z,7.10
2018-08-30T09:05:33.069Z,7.97
2018-08-30T09:08:00.779Z,7.57
2018-08-30T09:10:28.597Z,7.43
2018-08-30T09:12:56.272Z,7.97
2018-08-30T09:15:23.901Z,7.30
2018-08-30T09:17:52.092Z,6.80
2018-08-30T09:20:19.744Z,7.93
2018-08-30T09:22:47.328Z,6.73
2018-08-30T09:25:15.246Z,7.30
2018-08-30T09:27:42.830Z,7.37
2018-08-30T09:30:10.951Z,7.33
2018-08-30T09:32:38.530Z,7.37
2018-08-30T09:35:06.348Z,7.63
2018-08-30T09:37:34.093Z,7.60
2018-08-30T09:40:01.716Z,7.33
2018-08-30T09:42:29.412Z,7.97
2018-08-30T09:44:57.381Z,8.30
2018-08-30T09:47:24.827Z,7.60
2018-08-30T09:49:52.464Z,7.47
2018-08-30T09:52:20.377Z,7.37
2018-08-30T09:54:48.020Z,7.40
2018-08-30T09:57:15.931Z,8.03
2018-08-30T09:59:43.357Z,8.30
2018-08-30T10:02:16.773Z,7.60
2018-08-30T10:04:44.820Z,8.40
2018-08-30T10:07:12.365Z,8.53
2018-08-30T10:09:40.271Z,8.20
2018-08-30T10:12:07.926Z,9.23
2018-08-30T10:14:35.628Z,8.63
2018-08-30T10:17:03.531Z,8.20
2018-08-30T10:19:31.181Z,8.27
2018-08-30T10:21:59.155Z,7.97
2018-08-30T10:24:26.775Z,8.27
2018-08-30T10:26:54.430Z,9.80
2018-08-30T10:29:22.448Z,9.10
2018-08-30T10:31:50.130Z,8.40
2018-08-30T10:34:17.772Z,8.23
2018-08-30T10:36:45.945Z,8.37
2018-08-30T10:39:13.521Z,9.20
2018-08-30T10:41:41.140Z,8.67
2018-08-30T10:44:09.064Z,8.07
2018-08-30T10:46:36.700Z,8.40
2018-08-30T10:49:04.461Z,8.63
2018-08-30T10:51:32.464Z,9.37
2018-08-30T10:54:00.120Z,8.67
2018-08-30T10:56:27.817Z,8.40
2018-08-30T10:58:55.536Z,9.30
2018-08-30T11:01:23.153Z,9.60
2018-08-30T11:03:50.893Z,10.37
2018-08-30T11:06:19.520Z,9.30
2018-08-30T11:08:47.181Z,9.43
2018-08-30T11:11:14.712Z,9.97
2018-08-30T11:13:42.740Z,11.30
2018-08-30T11:16:10.393Z,10.33
2018-08-30T11:18:38.043Z,10.03
2018-08-30T11:21:06.212Z,10.60
2018-08-30T11:23:33.801Z,10.60
2018-08-30T11:26:01.426Z,11.37
2018-08-30T11:28:29.321Z,10.90
2018-08-30T11:30:57.067Z,9.90
2018-08-30T11:33:24.609Z,10.13
2018-08-30T11:35:52.173Z,10.43
2018-08-30T11:38:20.039Z,9.63
2018-08-30T11:40:47.740Z,10.83
2018-08-30T11:43:15.447Z,10.37
2018-08-30T11:45:43.411Z,9.60
2018-08-30T11:48:26.063Z,10.27
2018-08-30T11:51:31.860Z,10.47
2018-08-30T11:53:59.447Z,9.10
2018-08-30T11:56:27.257Z,9.43
2018-08-30T11:58:54.937Z,9.57
2018-08-30T12:01:22.604Z,9.77
2018-08-30T12:03:50.171Z,9.60
2018-08-30T12:06:18.282Z,9.97
2018-08-30T12:08:45.942Z,8.93
2018-08-30T12:11:16.037Z,7.87
2018-08-30T12:13:44.435Z,7.50
2018-08-30T12:16:11.981Z,7.70
2018-08-30T12:18:39.661Z,8.00
2018-08-30T12:21:07.704Z,6.47
2018-08-30T12:23:35.574Z,6.50
2018-08-30T12:26:03.358Z,5.80
2018-08-30T12:28:31.431Z,6.43
2018-08-30T12:31:25.634Z,5.23
2018-08-30T12:33:53.576Z,5.27
2018-08-30T12:36:21.202Z,3.33
2018-08-30T12:38:48.818Z,2.80
2018-08-30T12:41:16.535Z,2.10
2018-08-30T12:43:44.059Z,1.57
2018-08-30T12:46:11.816Z,1.63
2018-08-30T12:48:39.764Z,1.30
2018-08-30T12:51:07.305Z,1.47
2018-08-30T12:53:35.007Z,1.70
2018-08-30T12:56:02.720Z,1.83
2018-08-30T12:58:30.840Z,1.83
2018-08-30T13:00:58.454Z,2.03
2018-08-30T13:03:26.010Z,2.00
2018-08-30T13:05:54.352Z,2.30
2018-08-30T13:08:22.268Z,2.20
2018-08-30T13:10:49.976Z,2.13
2018-08-30T13:13:17.581Z,2.40
2018-08-30T13:15:45.093Z,2.00
2018-08-30T13:18:12.885Z,1.37
2018-08-30T13:20:40.964Z,1.07
2018-08-30T13:23:08.578Z,0.83
2018-08-30T13:25:43.534Z,0.87
2018-08-30T13:28:11.240Z,0.70
2018-08-30T13:30:38.756Z,0.70
2018-08-30T13:33:06.456Z,0.70
2018-08-30T13:35:34.130Z,0.60
2018-08-30T13:38:01.875Z,0.60
2018-08-30T13:40:29.497Z,0.67
2018-08-30T13:42:56.916Z,0.70
2018-08-30T13:45:24.530Z,0.60
2018-08-30T13:47:52.153Z,0.83
2018-08-30T13:50:19.955Z,0.80
2018-08-30T13:52:47.985Z,0.80
2018-08-30T13:55:15.707Z,1.20
2018-08-30T13:57:43.633Z,0.90
2018-08-30T14:00:11.055Z,0.87
2018-08-30T14:02:38.710Z,1.00
2018-08-30T14:05:06.523Z,1.30
2018-08-30T14:07:34.302Z,1.30
2018-08-30T14:10:02.145Z,1.40
2018-08-30T14:12:29.474Z,1.50
2018-08-30T14:14:57.120Z,1.33
2018-08-30T14:17:24.493Z,1.30
2018-08-30T14:19:52.109Z,1.37
2018-08-30T14:22:19.842Z,1.67
2018-08-30T14:24:47.421Z,1.47
2018-08-30T14:27:15.079Z,1.60
2018-08-30T14:29:43.273Z,1.60
2018-08-30T14:32:11.176Z,1.83
2018-08-30T14:34:38.743Z,2.10
2018-08-30T14:37:06.516Z,2.80
2018-08-30T14:39:34.167Z,2.63
2018-08-30T14:42:01.780Z,2.57
2018-08-30T14:44:29.299Z,2.67
2018-08-30T14:46:57.034Z,2.57
2018-08-30T14:49:24.696Z,3.00
2018-08-30T14:51:52.655Z,2.83
2018-08-30T14:54:20.381Z,3.00
2018-08-30T14:56:48.451Z,2.47
2018-08-30T14:59:16.040Z,2.70
2018-08-30T15:01:43.758Z,3.23
2018-08-30T15:04:11.216Z,2.73
2018-08-30T15:06:38.761Z,3.07
2018-08-30T15:09:07.761Z,3.33
2018-08-30T15:11:35.495Z,2.83
2018-08-30T15:14:03.144Z,2.70
2018-08-30T15:16:30.940Z,2.50
2018-08-30T15:18:58.468Z,3.03
2018-08-30T15:21:26.104Z,2.70
2018-08-30T15:23:54.116Z,2.67
2018-08-30T15:26:21.689Z,3.37
2018-08-30T15:28:49.424Z,3.00
2018-08-30T15:31:17.345Z,2.50
2018-08-30T15:33:45.082Z,2.63
2018-08-30T15:36:12.646Z,2.90
2018-08-30T15:38:40.728Z,2.63
2018-08-30T15:41:08.378Z,3.17
2018-08-30T15:43:36.221Z,3.10
2018-08-30T15:51:00.925Z,2.90
2018-08-30T15:53:28.424Z,2.77
2018-08-30T15:55:55.943Z,2.80
2018-08-30T15:58:23.554Z,3.30
2018-08-30T16:00:51.720Z,3.20
2018-08-30T16:03:19.342Z,3.10
2018-08-30T16:05:47.107Z,3.07
2018-08-30T16:08:14.667Z,2.70
2018-08-30T16:10:42.248Z,3.00
2018-08-30T16:13:10.248Z,3.10
2018-08-30T16:15:37.776Z,2.70
2018-08-30T16:18:05.381Z,3.00
2018-08-30T16:20:33.264Z,3.50
2018-08-30T16:23:11.089Z,3.17
2018-08-30T16:25:38.688Z,3.10
2018-08-30T16:28:06.302Z,3.17
2018-08-30T16:30:33.888Z,3.30
2018-08-30T16:33:01.702Z,3.30
2018-08-30T16:35:29.323Z,3.60
2018-08-30T16:37:57.050Z,3.13
2018-08-30T16:40:31.834Z,2.97
2018-08-30T16:42:59.381Z,3.27
2018-08-30T16:45:27.369Z,3.37
2018-08-30T16:47:55.075Z,3.27
2018-08-30T16:50:22.817Z,3.40
2018-08-30T16:52:50.489Z,3.07
2018-08-30T16:55:18.748Z,3.07
2018-08-30T16:57:46.423Z,3.20
2018-08-30T17:00:14.032Z,3.53
2018-08-30T17:02:41.791Z,3.13
2018-08-30T17:05:09.387Z,2.97
2018-08-30T17:07:36.588Z,3.03
2018-08-30T17:10:04.316Z,2.90
2018-08-30T17:12:31.996Z,3.30
2018-08-30T17:14:59.843Z,3.10
2018-08-30T17:17:28.392Z,3.23
2018-08-30T17:19:56.048Z,2.83
2018-08-30T17:22:24.011Z,3.17
2018-08-30T17:24:51.776Z,3.00
2018-08-30T17:27:19.707Z,3.00
2018-08-30T17:29:47.610Z,3.37
2018-08-30T17:32:15.464Z,3.90
2018-08-30T17:34:43.356Z,4.00
2018-08-30T17:37:11.236Z,3.43
2018-08-30T17:39:39.213Z,3.57
2018-08-30T17:42:06.917Z,3.47
2018-08-30T17:44:34.520Z,4.37
2018-08-30T17:47:03.152Z,3.90
2018-08-30T17:49:30.740Z,3.93
2018-08-30T17:51:58.471Z,4.37
2018-08-30T17:54:26.312Z,4.07
2018-08-30T17:56:54.100Z,4.53
2018-08-30T17:59:22.387Z,4.17
2018-08-30T18:01:50.099Z,4.33
2018-08-30T18:04:17.623Z,4.73
2018-08-30T18:06:45.684Z,4.30
2018-08-30T18:09:13.486Z,4.00
2018-08-30T18:11:41.068Z,4.60
2018-08-30T18:14:48.392Z,5.00
2018-08-30T18:17:27.395Z,4.73
2018-08-30T18:20:33.460Z,4.33
2018-08-30T18:23:25.542Z,3.97
2018-08-30T18:26:11.723Z,4.57
2018-08-30T18:28:39.604Z,3.87
2018-08-30T18:31:07.200Z,4.43
2018-08-30T18:33:34.844Z,4.47
2018-08-30T18:36:02.600Z,4.60
2018-08-30T18:38:30.618Z,4.70
2018-08-30T18:40:58.160Z,4.37
2018-08-30T18:43:25.776Z,4.30
2018-08-30T18:45:53.582Z,4.23
2018-08-30T18:48:21.164Z,3.97
2018-08-30T18:50:48.740Z,4.47
2018-08-30T18:53:16.644Z,4.60
2018-08-30T18:55:44.255Z,4.13
2018-08-30T18:58:12.384Z,4.17
2018-08-30T19:00:40.121Z,3.87
2018-08-30T19:03:07.667Z,3.80
2018-08-30T19:05:35.219Z,4.07
2018-08-30T19:08:03.012Z,4.20
2018-08-30T19:10:30.639Z,3.60
2018-08-30T19:12:58.211Z,3.70
2018-08-30T19:15:31.781Z,3.73
2018-08-30T19:18:05.547Z,4.10
2018-08-30T19:20:33.209Z,3.83
2018-08-30T19:23:01.069Z,3.23
2018-08-30T19:25:30.067Z,3.10
2018-08-30T19:27:57.780Z,2.80
2018-08-30T19:30:26.077Z,2.67
2018-08-30T19:32:54.615Z,2.97
2018-08-30T19:35:28.079Z,3.10
2018-08-30T19:37:55.704Z,3.20
2018-08-30T19:40:38.863Z,3.30
2018-08-30T19:43:06.420Z,2.67
2018-08-30T19:45:34.093Z,2.57
2018-08-30T19:48:02.023Z,3.27
2018-08-30T19:50:29.580Z,3.40
2018-08-30T19:52:57.379Z,2.80
2018-08-30T19:55:24.960Z,3.27
2018-08-30T19:57:52.596Z,3.20
2018-08-30T20:00:20.698Z,3.73
2018-08-30T20:02:48.628Z,3.37
2018-08-30T20:05:16.212Z,3.47
2018-08-30T20:07:43.833Z,3.70
2018-08-30T20:10:11.723Z,3.77
2018-08-30T20:12:39.247Z,3.90
2018-08-30T20:15:07.140Z,3.80
2018-08-30T20:17:35.156Z,3.90
2018-08-30T20:20:03.024Z,3.93
2018-08-30T20:22:30.667Z,3.87
2018-08-30T20:24:58.231Z,4.00
2018-08-30T20:27:26.237Z,4.10
2018-08-30T20:29:54.265Z,3.10
2018-08-30T20:32:21.904Z,3.40
2018-08-30T20:34:49.555Z,3.50
2018-08-30T20:37:17.169Z,3.53
2018-08-30T20:39:44.736Z,3.60
2018-08-30T20:42:12.871Z,3.30
2018-08-30T20:44:40.521Z,3.03
2018-08-30T20:47:08.147Z,3.00
2018-08-30T20:49:35.785Z,2.43
2018-08-30T20:52:03.424Z,2.73
2018-08-30T20:54:31.385Z,2.40
2018-08-30T20:56:58.934Z,3.00
2018-08-30T20:59:26.991Z,2.47
2018-08-30T21:01:55.113Z,2.33
2018-08-30T21:04:23.644Z,2.37
2018-08-30T21:06:51.569Z,2.40
2018-08-30T21:09:19.546Z,2.60
2018-08-30T21:11:47.164Z,2.03
2018-08-30T21:14:14.764Z,2.40
2018-08-30T21:16:42.636Z,1.83
2018-08-30T21:19:10.168Z,2.03
2018-08-30T21:21:37.699Z,2.50
2018-08-30T21:24:05.498Z,2.20
2018-08-30T21:26:33.242Z,2.17
2018-08-30T21:29:01.096Z,2.47
2018-08-30T21:31:28.660Z,2.13
2018-08-30T21:33:56.279Z,2.37
2018-08-30T21:36:23.880Z,2.37
2018-08-30T21:38:51.437Z,2.53
2018-08-30T21:41:19.008Z,2.70
2018-08-30T21:43:46.647Z,2.33
2018-08-30T21:46:14.193Z,2.23
2018-08-30T21:48:41.764Z,2.83
2018-08-30T21:51:09.340Z,2.60
2018-08-30T21:53:36.886Z,2.27
2018-08-30T21:56:04.436Z,2.17
2018-08-30T21:58:32.264Z,2.30
2018-08-30T22:00:59.881Z,2.30
2018-08-30T22:03:27.395Z,2.50
2018-08-30T22:05:54.992Z,2.47
2018-08-30T22:08:22.530Z,2.23
2018-08-30T22:10:50.125Z,2.10
2018-08-30T22:13:17.892Z,2.10
2018-08-30T22:15:45.460Z,2.37
2018-08-30T22:18:13.030Z,2.17
2018-08-30T22:20:40.704Z,2.23
2018-08-30T22:23:08.328Z,2.07
2018-08-30T22:25:35.904Z,2.23
2018-08-30T22:28:03.758Z,2.17
2018-08-30T22:30:31.364Z,2.13
2018-08-30T22:32:58.923Z,2.37
2018-08-30T22:35:26.532Z,2.20
2018-08-30T22:37:54.092Z,2.10
2018-08-30T22:40:21.726Z,2.10
2018-08-30T22:42:49.467Z,2.20
2018-08-30T22:45:17.036Z,2.10
2018-08-30T22:47:45.417Z,2.37
2018-08-30T22:50:12.979Z,2.30
2018-08-30T22:52:40.512Z,2.20
2018-08-30T22:55:08.316Z,2.10
2018-08-30T22:57:35.922Z,2.13
2018-08-30T23:00:03.477Z,2.17
2018-08-30T23:02:31.506Z,2.10
2018-08-30T23:04:59.199Z,2.27
2018-08-30T23:07:26.803Z,2.40
2018-08-30T23:09:54.405Z,2.13
2018-08-30T23:12:22.032Z,1.93
2018-08-30T23:14:49.918Z,2.07
2018-08-30T23:17:17.580Z,1.90
2018-08-30T23:19:45.141Z,2.03
2018-08-30T23:22:12.712Z,2.40
2018-08-30T23:24:40.637Z,2.63
2018-08-30T23:27:08.164Z,2.37
2018-08-30T23:29:35.708Z,2.20
2018-08-30T23:32:03.853Z,2.27
2018-08-30T23:34:31.404Z,2.30
2018-08-30T23:36:59.017Z,2.17
2018-08-30T23:39:27.071Z,2.17
2018-08-30T23:41:54.626Z,2.53
2018-08-30T23:44:22.171Z,1.97
2018-08-30T23:46:49.940Z,2.10
2018-08-30T23:49:17.521Z,1.90
2018-08-30T23:51:45.075Z,1.90
2018-08-30T23:54:12.830Z,1.93
2018-08-30T23:56:40.689Z,2.00
2018-08-30T23:59:26.256Z,2.07
